sensor_id;sensor_type;location;lat;lon;timestamp;P1;durP1;ratioP1;P2;durP2;ratioP2
68484;SDS011;55472;50.060;21.960;2023-12-20T00:00:08;30.73;;;11.17;;
68484;SDS011;55472;50.060;21.960;2023-12-20T00:02:35;27.60;;;10.38;;
68484;SDS011;55472;50.060;21.960;2023-12-20T00:05:01;30.30;;;11.02;;
68484;SDS011;55472;50.060;21.960;2023-12-20T00:07:27;30.55;;;11.52;;
68484;SDS011;55472;50.060;21.960;2023-12-20T00:09:53;26.25;;;10.48;;
68484;SDS011;55472;50.060;21.960;2023-12-20T00:12:19;25.00;;;10.00;;
68484;SDS011;55472;50.060;21.960;2023-12-20T00:14:45;25.85;;;9.80;;
68484;SDS011;55472;50.060;21.960;2023-12-20T00:17:11;24.50;;;9.38;;
68484;SDS011;55472;50.060;21.960;2023-12-20T00:19:38;27.38;;;10.85;;
68484;SDS011;55472;50.060;21.960;2023-12-20T00:22:04;29.27;;;11.43;;
68484;SDS011;55472;50.060;21.960;2023-12-20T00:24:30;26.20;;;10.60;;
68484;SDS011;55472;50.060;21.960;2023-12-20T00:26:56;24.40;;;9.57;;
68484;SDS011;55472;50.060;21.960;2023-12-20T00:29:22;29.17;;;11.35;;
68484;SDS011;55472;50.060;21.960;2023-12-20T00:31:48;29.43;;;11.07;;
68484;SDS011;55472;50.060;21.960;2023-12-20T00:34:15;24.77;;;9.80;;
68484;SDS011;55472;50.060;21.960;2023-12-20T00:36:41;26.35;;;10.25;;
68484;SDS011;55472;50.060;21.960;2023-12-20T00:39:07;27.02;;;10.45;;
68484;SDS011;55472;50.060;21.960;2023-12-20T00:41:33;24.77;;;10.73;;
68484;SDS011;55472;50.060;21.960;2023-12-20T00:43:59;25.87;;;9.57;;
68484;SDS011;55472;50.060;21.960;2023-12-20T00:46:25;29.35;;;11.48;;
68484;SDS011;55472;50.060;21.960;2023-12-20T00:48:51;26.60;;;9.70;;
68484;SDS011;55472;50.060;21.960;2023-12-20T00:51:17;28.67;;;9.57;;
68484;SDS011;55472;50.060;21.960;2023-12-20T00:53:43;25.10;;;9.43;;
68484;SDS011;55472;50.060;21.960;2023-12-20T00:56:09;27.02;;;9.98;;
68484;SDS011;55472;50.060;21.960;2023-12-20T00:58:36;27.33;;;9.50;;
68484;SDS011;55472;50.060;21.960;2023-12-20T01:01:01;24.15;;;9.35;;
68484;SDS011;55472;50.060;21.960;2023-12-20T01:03:28;23.10;;;8.63;;
68484;SDS011;55472;50.060;21.960;2023-12-20T01:05:55;23.30;;;8.93;;
68484;SDS011;55472;50.060;21.960;2023-12-20T01:08:21;20.95;;;8.30;;
68484;SDS011;55472;50.060;21.960;2023-12-20T01:10:47;24.40;;;9.55;;
68484;SDS011;55472;50.060;21.960;2023-12-20T01:13:14;18.60;;;7.22;;
68484;SDS011;55472;50.060;21.960;2023-12-20T01:15:40;21.97;;;7.93;;
68484;SDS011;55472;50.060;21.960;2023-12-20T01:18:06;24.42;;;8.90;;
68484;SDS011;55472;50.060;21.960;2023-12-20T01:20:32;29.02;;;10.35;;
68484;SDS011;55472;50.060;21.960;2023-12-20T01:22:58;22.52;;;8.85;;
68484;SDS011;55472;50.060;21.960;2023-12-20T01:25:24;22.60;;;9.45;;
68484;SDS011;55472;50.060;21.960;2023-12-20T01:27:50;27.03;;;9.67;;
68484;SDS011;55472;50.060;21.960;2023-12-20T01:30:16;26.77;;;8.70;;
68484;SDS011;55472;50.060;21.960;2023-12-20T01:32:43;25.80;;;9.15;;
68484;SDS011;55472;50.060;21.960;2023-12-20T01:35:08;28.52;;;9.40;;
68484;SDS011;55472;50.060;21.960;2023-12-20T01:37:35;20.10;;;7.93;;
68484;SDS011;55472;50.060;21.960;2023-12-20T01:40:01;23.70;;;7.90;;
68484;SDS011;55472;50.060;21.960;2023-12-20T01:42:27;25.08;;;8.90;;
68484;SDS011;55472;50.060;21.960;2023-12-20T01:44:54;27.05;;;9.57;;
68484;SDS011;55472;50.060;21.960;2023-12-20T01:47:20;17.95;;;7.40;;
68484;SDS011;55472;50.060;21.960;2023-12-20T01:49:47;27.80;;;9.00;;
68484;SDS011;55472;50.060;21.960;2023-12-20T01:52:15;26.35;;;9.07;;
68484;SDS011;55472;50.060;21.960;2023-12-20T01:54:41;23.05;;;8.38;;
68484;SDS011;55472;50.060;21.960;2023-12-20T01:57:08;19.15;;;7.80;;
68484;SDS011;55472;50.060;21.960;2023-12-20T01:59:35;24.90;;;9.23;;
68484;SDS011;55472;50.060;21.960;2023-12-20T02:04:37;24.83;;;8.77;;
68484;SDS011;55472;50.060;21.960;2023-12-20T02:07:03;26.10;;;9.02;;
68484;SDS011;55472;50.060;21.960;2023-12-20T02:09:30;27.30;;;9.73;;
68484;SDS011;55472;50.060;21.960;2023-12-20T02:11:57;23.60;;;8.45;;
68484;SDS011;55472;50.060;21.960;2023-12-20T02:14:23;23.50;;;8.33;;
68484;SDS011;55472;50.060;21.960;2023-12-20T02:16:49;23.10;;;8.88;;
68484;SDS011;55472;50.060;21.960;2023-12-20T02:19:16;24.75;;;9.32;;
68484;SDS011;55472;50.060;21.960;2023-12-20T02:21:45;23.80;;;8.85;;
68484;SDS011;55472;50.060;21.960;2023-12-20T02:24:11;21.80;;;8.50;;
68484;SDS011;55472;50.060;21.960;2023-12-20T02:26:37;22.65;;;8.93;;
68484;SDS011;55472;50.060;21.960;2023-12-20T02:29:04;26.40;;;8.65;;
68484;SDS011;55472;50.060;21.960;2023-12-20T02:31:30;23.15;;;7.90;;
68484;SDS011;55472;50.060;21.960;2023-12-20T02:33:56;25.98;;;8.65;;
68484;SDS011;55472;50.060;21.960;2023-12-20T02:36:22;22.80;;;8.50;;
68484;SDS011;55472;50.060;21.960;2023-12-20T02:38:48;26.05;;;8.35;;
68484;SDS011;55472;50.060;21.960;2023-12-20T02:41:16;24.90;;;8.80;;
68484;SDS011;55472;50.060;21.960;2023-12-20T02:43:43;23.55;;;8.75;;
68484;SDS011;55472;50.060;21.960;2023-12-20T02:46:09;23.40;;;8.43;;
68484;SDS011;55472;50.060;21.960;2023-12-20T02:48:35;26.58;;;9.25;;
68484;SDS011;55472;50.060;21.960;2023-12-20T02:51:02;21.88;;;8.27;;
68484;SDS011;55472;50.060;21.960;2023-12-20T02:53:28;21.77;;;8.65;;
68484;SDS011;55472;50.060;21.960;2023-12-20T02:55:54;21.95;;;8.45;;
68484;SDS011;55472;50.060;21.960;2023-12-20T02:58:20;22.90;;;9.13;;
68484;SDS011;55472;50.060;21.960;2023-12-20T03:00:47;21.83;;;8.50;;
68484;SDS011;55472;50.060;21.960;2023-12-20T03:03:13;24.27;;;9.13;;
68484;SDS011;55472;50.060;21.960;2023-12-20T03:05:39;21.73;;;9.05;;
68484;SDS011;55472;50.060;21.960;2023-12-20T03:08:05;20.70;;;7.93;;
68484;SDS011;55472;50.060;21.960;2023-12-20T03:10:31;26.98;;;9.75;;
68484;SDS011;55472;50.060;21.960;2023-12-20T03:12:57;24.70;;;9.15;;
68484;SDS011;55472;50.060;21.960;2023-12-20T03:15:23;21.48;;;8.77;;
68484;SDS011;55472;50.060;21.960;2023-12-20T03:17:49;26.42;;;8.60;;
68484;SDS011;55472;50.060;21.960;2023-12-20T03:20:16;23.57;;;8.17;;
68484;SDS011;55472;50.060;21.960;2023-12-20T03:22:42;21.85;;;8.65;;
68484;SDS011;55472;50.060;21.960;2023-12-20T03:25:08;24.00;;;8.55;;
68484;SDS011;55472;50.060;21.960;2023-12-20T03:27:34;25.88;;;8.60;;
68484;SDS011;55472;50.060;21.960;2023-12-20T03:30:04;26.70;;;9.57;;
68484;SDS011;55472;50.060;21.960;2023-12-20T03:32:31;23.88;;;8.32;;
68484;SDS011;55472;50.060;21.960;2023-12-20T03:34:57;18.88;;;8.05;;
68484;SDS011;55472;50.060;21.960;2023-12-20T03:37:23;25.58;;;9.13;;
68484;SDS011;55472;50.060;21.960;2023-12-20T03:39:50;22.77;;;7.93;;
68484;SDS011;55472;50.060;21.960;2023-12-20T03:42:15;22.60;;;8.33;;
68484;SDS011;55472;50.060;21.960;2023-12-20T03:44:42;22.25;;;8.63;;
68484;SDS011;55472;50.060;21.960;2023-12-20T03:47:08;19.48;;;7.90;;
68484;SDS011;55472;50.060;21.960;2023-12-20T03:49:34;22.23;;;8.63;;
68484;SDS011;55472;50.060;21.960;2023-12-20T03:52:02;22.23;;;8.10;;
68484;SDS011;55472;50.060;21.960;2023-12-20T03:54:29;22.07;;;8.33;;
68484;SDS011;55472;50.060;21.960;2023-12-20T03:56:55;23.13;;;8.82;;
68484;SDS011;55472;50.060;21.960;2023-12-20T03:59:21;18.00;;;7.50;;
68484;SDS011;55472;50.060;21.960;2023-12-20T04:01:47;20.90;;;7.95;;
68484;SDS011;55472;50.060;21.960;2023-12-20T04:04:13;19.25;;;7.07;;
68484;SDS011;55472;50.060;21.960;2023-12-20T04:06:39;17.83;;;6.67;;
68484;SDS011;55472;50.060;21.960;2023-12-20T04:09:06;21.75;;;8.63;;
68484;SDS011;55472;50.060;21.960;2023-12-20T04:11:34;19.98;;;7.35;;
68484;SDS011;55472;50.060;21.960;2023-12-20T04:14:01;18.50;;;7.32;;
68484;SDS011;55472;50.060;21.960;2023-12-20T04:16:26;22.33;;;7.70;;
68484;SDS011;55472;50.060;21.960;2023-12-20T04:18:53;22.30;;;8.57;;
68484;SDS011;55472;50.060;21.960;2023-12-20T04:21:19;24.13;;;7.82;;
68484;SDS011;55472;50.060;21.960;2023-12-20T04:23:45;22.58;;;7.82;;
68484;SDS011;55472;50.060;21.960;2023-12-20T04:26:11;19.83;;;7.53;;
68484;SDS011;55472;50.060;21.960;2023-12-20T04:28:37;19.85;;;7.57;;
68484;SDS011;55472;50.060;21.960;2023-12-20T04:31:03;20.15;;;7.18;;
68484;SDS011;55472;50.060;21.960;2023-12-20T04:33:29;19.80;;;7.72;;
68484;SDS011;55472;50.060;21.960;2023-12-20T04:35:55;20.00;;;7.27;;
68484;SDS011;55472;50.060;21.960;2023-12-20T04:38:23;20.38;;;7.65;;
68484;SDS011;55472;50.060;21.960;2023-12-20T04:40:49;15.40;;;6.00;;
68484;SDS011;55472;50.060;21.960;2023-12-20T04:43:15;19.08;;;8.05;;
68484;SDS011;55472;50.060;21.960;2023-12-20T04:45:41;25.07;;;8.00;;
68484;SDS011;55472;50.060;21.960;2023-12-20T04:48:07;18.67;;;6.63;;
68484;SDS011;55472;50.060;21.960;2023-12-20T04:50:33;23.15;;;7.85;;
68484;SDS011;55472;50.060;21.960;2023-12-20T04:52:59;21.98;;;7.50;;
68484;SDS011;55472;50.060;21.960;2023-12-20T04:55:26;22.75;;;8.27;;
68484;SDS011;55472;50.060;21.960;2023-12-20T04:57:52;20.93;;;7.80;;
68484;SDS011;55472;50.060;21.960;2023-12-20T05:00:18;17.17;;;6.47;;
68484;SDS011;55472;50.060;21.960;2023-12-20T05:02:44;15.88;;;6.57;;
68484;SDS011;55472;50.060;21.960;2023-12-20T05:05:10;20.80;;;7.28;;
68484;SDS011;55472;50.060;21.960;2023-12-20T05:07:36;22.58;;;6.90;;
68484;SDS011;55472;50.060;21.960;2023-12-20T05:10:03;20.00;;;7.60;;
68484;SDS011;55472;50.060;21.960;2023-12-20T05:12:34;21.58;;;8.05;;
68484;SDS011;55472;50.060;21.960;2023-12-20T05:15:00;21.27;;;7.82;;
68484;SDS011;55472;50.060;21.960;2023-12-20T05:17:26;18.92;;;8.23;;
68484;SDS011;55472;50.060;21.960;2023-12-20T05:19:52;21.58;;;8.00;;
68484;SDS011;55472;50.060;21.960;2023-12-20T05:22:18;19.20;;;7.03;;
68484;SDS011;55472;50.060;21.960;2023-12-20T05:24:45;19.73;;;7.18;;
68484;SDS011;55472;50.060;21.960;2023-12-20T05:27:11;20.35;;;7.25;;
68484;SDS011;55472;50.060;21.960;2023-12-20T05:29:37;21.88;;;8.07;;
68484;SDS011;55472;50.060;21.960;2023-12-20T05:32:04;22.65;;;7.97;;
68484;SDS011;55472;50.060;21.960;2023-12-20T05:34:30;18.57;;;6.73;;
68484;SDS011;55472;50.060;21.960;2023-12-20T05:36:57;23.20;;;8.13;;
68484;SDS011;55472;50.060;21.960;2023-12-20T05:39:23;23.90;;;7.80;;
68484;SDS011;55472;50.060;21.960;2023-12-20T05:41:49;39.58;;;11.73;;
68484;SDS011;55472;50.060;21.960;2023-12-20T05:44:15;29.40;;;10.07;;
68484;SDS011;55472;50.060;21.960;2023-12-20T05:46:42;22.38;;;7.35;;
68484;SDS011;55472;50.060;21.960;2023-12-20T05:49:08;43.22;;;12.70;;
68484;SDS011;55472;50.060;21.960;2023-12-20T05:51:34;48.42;;;12.27;;
68484;SDS011;55472;50.060;21.960;2023-12-20T05:54:00;21.40;;;8.05;;
68484;SDS011;55472;50.060;21.960;2023-12-20T05:56:26;27.03;;;8.37;;
68484;SDS011;55472;50.060;21.960;2023-12-20T05:58:52;35.42;;;10.35;;
68484;SDS011;55472;50.060;21.960;2023-12-20T06:01:18;17.75;;;6.95;;
68484;SDS011;55472;50.060;21.960;2023-12-20T06:03:44;34.60;;;9.70;;
68484;SDS011;55472;50.060;21.960;2023-12-20T06:06:13;26.45;;;9.43;;
68484;SDS011;55472;50.060;21.960;2023-12-20T06:08:40;32.03;;;9.27;;
68484;SDS011;55472;50.060;21.960;2023-12-20T06:11:09;33.80;;;9.32;;
68484;SDS011;55472;50.060;21.960;2023-12-20T06:13:35;25.90;;;8.38;;
68484;SDS011;55472;50.060;21.960;2023-12-20T06:16:01;21.20;;;7.70;;
68484;SDS011;55472;50.060;21.960;2023-12-20T06:18:30;20.67;;;7.00;;
68484;SDS011;55472;50.060;21.960;2023-12-20T06:20:56;25.00;;;8.13;;
68484;SDS011;55472;50.060;21.960;2023-12-20T06:23:22;24.55;;;8.75;;
68484;SDS011;55472;50.060;21.960;2023-12-20T06:25:48;26.20;;;8.90;;
68484;SDS011;55472;50.060;21.960;2023-12-20T06:28:14;22.35;;;7.50;;
68484;SDS011;55472;50.060;21.960;2023-12-20T06:30:40;24.27;;;7.67;;
68484;SDS011;55472;50.060;21.960;2023-12-20T06:33:06;31.25;;;9.10;;
68484;SDS011;55472;50.060;21.960;2023-12-20T06:35:35;25.35;;;7.43;;
68484;SDS011;55472;50.060;21.960;2023-12-20T06:38:01;24.05;;;7.60;;
68484;SDS011;55472;50.060;21.960;2023-12-20T06:40:27;25.10;;;8.30;;
68484;SDS011;55472;50.060;21.960;2023-12-20T06:42:53;25.83;;;8.47;;
68484;SDS011;55472;50.060;21.960;2023-12-20T06:45:20;25.75;;;8.07;;
68484;SDS011;55472;50.060;21.960;2023-12-20T06:47:46;65.72;;;18.20;;
68484;SDS011;55472;50.060;21.960;2023-12-20T06:50:12;25.30;;;8.55;;
68484;SDS011;55472;50.060;21.960;2023-12-20T06:52:38;23.70;;;7.70;;
68484;SDS011;55472;50.060;21.960;2023-12-20T06:55:07;24.60;;;7.73;;
68484;SDS011;55472;50.060;21.960;2023-12-20T06:57:36;17.20;;;6.53;;
68484;SDS011;55472;50.060;21.960;2023-12-20T07:00:03;21.05;;;7.43;;
68484;SDS011;55472;50.060;21.960;2023-12-20T07:02:31;26.90;;;8.25;;
68484;SDS011;55472;50.060;21.960;2023-12-20T07:04:57;20.10;;;7.53;;
68484;SDS011;55472;50.060;21.960;2023-12-20T07:07:26;25.63;;;8.90;;
68484;SDS011;55472;50.060;21.960;2023-12-20T07:09:55;25.13;;;8.52;;
68484;SDS011;55472;50.060;21.960;2023-12-20T07:12:24;24.23;;;7.65;;
68484;SDS011;55472;50.060;21.960;2023-12-20T07:14:51;21.38;;;7.38;;
68484;SDS011;55472;50.060;21.960;2023-12-20T07:17:17;21.05;;;8.05;;
68484;SDS011;55472;50.060;21.960;2023-12-20T07:19:43;28.53;;;9.37;;
68484;SDS011;55472;50.060;21.960;2023-12-20T07:22:09;29.27;;;8.02;;
68484;SDS011;55472;50.060;21.960;2023-12-20T07:24:35;23.45;;;7.75;;
68484;SDS011;55472;50.060;21.960;2023-12-20T07:27:01;32.45;;;8.70;;
68484;SDS011;55472;50.060;21.960;2023-12-20T07:29:28;23.00;;;8.15;;
68484;SDS011;55472;50.060;21.960;2023-12-20T07:31:54;28.90;;;9.00;;
68484;SDS011;55472;50.060;21.960;2023-12-20T07:34:20;24.65;;;8.63;;
68484;SDS011;55472;50.060;21.960;2023-12-20T07:36:46;30.48;;;9.50;;
68484;SDS011;55472;50.060;21.960;2023-12-20T07:39:13;24.25;;;8.30;;
68484;SDS011;55472;50.060;21.960;2023-12-20T07:41:40;36.33;;;9.90;;
68484;SDS011;55472;50.060;21.960;2023-12-20T07:44:06;29.13;;;9.32;;
68484;SDS011;55472;50.060;21.960;2023-12-20T07:46:32;27.50;;;8.88;;
68484;SDS011;55472;50.060;21.960;2023-12-20T07:48:59;25.20;;;8.02;;
68484;SDS011;55472;50.060;21.960;2023-12-20T07:51:25;31.25;;;9.73;;
68484;SDS011;55472;50.060;21.960;2023-12-20T07:53:51;19.07;;;6.97;;
68484;SDS011;55472;50.060;21.960;2023-12-20T07:56:18;26.63;;;8.07;;
68484;SDS011;55472;50.060;21.960;2023-12-20T07:58:45;25.73;;;8.80;;
68484;SDS011;55472;50.060;21.960;2023-12-20T08:01:13;25.35;;;8.32;;
68484;SDS011;55472;50.060;21.960;2023-12-20T08:03:41;24.60;;;7.80;;
68484;SDS011;55472;50.060;21.960;2023-12-20T08:06:07;22.27;;;7.60;;
68484;SDS011;55472;50.060;21.960;2023-12-20T08:08:33;27.88;;;7.75;;
68484;SDS011;55472;50.060;21.960;2023-12-20T08:10:59;23.90;;;7.93;;
68484;SDS011;55472;50.060;21.960;2023-12-20T08:13:26;26.02;;;9.23;;
68484;SDS011;55472;50.060;21.960;2023-12-20T08:15:52;26.30;;;8.68;;
68484;SDS011;55472;50.060;21.960;2023-12-20T08:18:19;30.67;;;9.27;;
68484;SDS011;55472;50.060;21.960;2023-12-20T08:20:45;31.45;;;8.90;;
68484;SDS011;55472;50.060;21.960;2023-12-20T08:23:13;33.08;;;9.48;;
68484;SDS011;55472;50.060;21.960;2023-12-20T08:25:39;36.53;;;11.07;;
68484;SDS011;55472;50.060;21.960;2023-12-20T08:28:05;24.98;;;8.60;;
68484;SDS011;55472;50.060;21.960;2023-12-20T08:30:31;33.43;;;9.87;;
68484;SDS011;55472;50.060;21.960;2023-12-20T08:33:01;38.20;;;11.80;;
68484;SDS011;55472;50.060;21.960;2023-12-20T08:35:27;27.88;;;9.25;;
68484;SDS011;55472;50.060;21.960;2023-12-20T08:37:54;22.75;;;7.53;;
68484;SDS011;55472;50.060;21.960;2023-12-20T08:40:20;25.17;;;9.35;;
68484;SDS011;55472;50.060;21.960;2023-12-20T08:42:47;23.97;;;8.47;;
68484;SDS011;55472;50.060;21.960;2023-12-20T08:45:13;26.73;;;9.00;;
68484;SDS011;55472;50.060;21.960;2023-12-20T08:47:40;25.67;;;9.93;;
68484;SDS011;55472;50.060;21.960;2023-12-20T08:50:06;28.50;;;10.75;;
68484;SDS011;55472;50.060;21.960;2023-12-20T08:52:33;23.73;;;8.75;;
68484;SDS011;55472;50.060;21.960;2023-12-20T08:54:59;26.03;;;10.17;;
68484;SDS011;55472;50.060;21.960;2023-12-20T08:57:25;26.02;;;9.05;;
68484;SDS011;55472;50.060;21.960;2023-12-20T08:59:52;29.45;;;10.75;;
68484;SDS011;55472;50.060;21.960;2023-12-20T09:02:18;27.85;;;9.73;;
68484;SDS011;55472;50.060;21.960;2023-12-20T09:04:44;25.00;;;9.30;;
68484;SDS011;55472;50.060;21.960;2023-12-20T09:07:26;30.40;;;10.70;;
68484;SDS011;55472;50.060;21.960;2023-12-20T09:10:05;24.00;;;8.80;;
68484;SDS011;55472;50.060;21.960;2023-12-20T09:12:32;25.67;;;9.75;;
68484;SDS011;55472;50.060;21.960;2023-12-20T09:14:58;26.38;;;9.50;;
68484;SDS011;55472;50.060;21.960;2023-12-20T09:17:31;20.85;;;8.35;;
68484;SDS011;55472;50.060;21.960;2023-12-20T09:19:57;23.93;;;8.70;;
68484;SDS011;55472;50.060;21.960;2023-12-20T09:22:25;19.95;;;7.72;;
68484;SDS011;55472;50.060;21.960;2023-12-20T09:24:52;25.00;;;9.57;;
68484;SDS011;55472;50.060;21.960;2023-12-20T09:27:19;30.77;;;9.07;;
68484;SDS011;55472;50.060;21.960;2023-12-20T09:29:45;33.45;;;10.43;;
68484;SDS011;55472;50.060;21.960;2023-12-20T09:32:11;24.97;;;9.50;;
68484;SDS011;55472;50.060;21.960;2023-12-20T09:34:37;26.02;;;8.85;;
68484;SDS011;55472;50.060;21.960;2023-12-20T09:37:03;27.45;;;8.90;;
68484;SDS011;55472;50.060;21.960;2023-12-20T09:39:30;31.35;;;9.90;;
68484;SDS011;55472;50.060;21.960;2023-12-20T09:42:00;30.85;;;10.90;;
68484;SDS011;55472;50.060;21.960;2023-12-20T09:44:28;22.57;;;8.80;;
68484;SDS011;55472;50.060;21.960;2023-12-20T09:46:55;25.55;;;8.93;;
68484;SDS011;55472;50.060;21.960;2023-12-20T09:49:22;34.30;;;11.60;;
68484;SDS011;55472;50.060;21.960;2023-12-20T09:51:50;26.25;;;9.57;;
68484;SDS011;55472;50.060;21.960;2023-12-20T09:54:17;31.58;;;10.15;;
68484;SDS011;55472;50.060;21.960;2023-12-20T09:56:44;20.37;;;7.80;;
68484;SDS011;55472;50.060;21.960;2023-12-20T09:59:10;44.88;;;12.02;;
68484;SDS011;55472;50.060;21.960;2023-12-20T10:01:38;35.58;;;11.32;;
68484;SDS011;55472;50.060;21.960;2023-12-20T10:04:08;25.65;;;8.88;;
68484;SDS011;55472;50.060;21.960;2023-12-20T10:06:41;23.30;;;8.88;;
68484;SDS011;55472;50.060;21.960;2023-12-20T10:09:09;30.47;;;10.50;;
68484;SDS011;55472;50.060;21.960;2023-12-20T10:11:36;20.65;;;8.65;;
68484;SDS011;55472;50.060;21.960;2023-12-20T10:14:04;34.53;;;11.05;;
68484;SDS011;55472;50.060;21.960;2023-12-20T10:16:32;23.70;;;8.70;;
68484;SDS011;55472;50.060;21.960;2023-12-20T10:18:59;23.88;;;9.32;;
68484;SDS011;55472;50.060;21.960;2023-12-20T10:21:29;26.13;;;8.30;;
68484;SDS011;55472;50.060;21.960;2023-12-20T10:23:56;20.08;;;8.27;;
68484;SDS011;55472;50.060;21.960;2023-12-20T10:26:26;30.13;;;11.13;;
68484;SDS011;55472;50.060;21.960;2023-12-20T10:28:53;26.20;;;10.05;;
68484;SDS011;55472;50.060;21.960;2023-12-20T10:31:29;35.72;;;12.50;;
68484;SDS011;55472;50.060;21.960;2023-12-20T10:33:57;27.90;;;9.30;;
68484;SDS011;55472;50.060;21.960;2023-12-20T10:36:25;27.88;;;10.27;;
68484;SDS011;55472;50.060;21.960;2023-12-20T10:38:54;32.78;;;10.65;;
68484;SDS011;55472;50.060;21.960;2023-12-20T10:41:31;38.35;;;12.15;;
68484;SDS011;55472;50.060;21.960;2023-12-20T10:43:59;29.75;;;10.70;;
68484;SDS011;55472;50.060;21.960;2023-12-20T10:46:30;22.77;;;9.50;;
68484;SDS011;55472;50.060;21.960;2023-12-20T10:48:58;24.50;;;9.32;;
68484;SDS011;55472;50.060;21.960;2023-12-20T10:51:25;32.45;;;11.68;;
68484;SDS011;55472;50.060;21.960;2023-12-20T10:53:52;31.35;;;11.25;;
68484;SDS011;55472;50.060;21.960;2023-12-20T10:56:20;30.52;;;11.15;;
68484;SDS011;55472;50.060;21.960;2023-12-20T10:58:46;30.30;;;9.97;;
68484;SDS011;55472;50.060;21.960;2023-12-20T11:01:15;23.30;;;8.55;;
68484;SDS011;55472;50.060;21.960;2023-12-20T11:03:49;35.22;;;12.32;;
68484;SDS011;55472;50.060;21.960;2023-12-20T11:06:26;22.05;;;7.85;;
68484;SDS011;55472;50.060;21.960;2023-12-20T11:14:48;24.02;;;9.55;;
68484;SDS011;55472;50.060;21.960;2023-12-20T11:17:14;25.08;;;9.50;;
68484;SDS011;55472;50.060;21.960;2023-12-20T11:20:03;25.67;;;9.60;;
68484;SDS011;55472;50.060;21.960;2023-12-20T11:22:31;23.75;;;8.77;;
68484;SDS011;55472;50.060;21.960;2023-12-20T11:25:04;32.10;;;11.83;;
68484;SDS011;55472;50.060;21.960;2023-12-20T11:28:22;37.05;;;11.95;;
68484;SDS011;55472;50.060;21.960;2023-12-20T11:30:42;41.15;;;12.85;;
68484;SDS011;55472;50.060;21.960;2023-12-20T11:33:13;50.28;;;14.68;;
68484;SDS011;55472;50.060;21.960;2023-12-20T11:35:41;41.55;;;13.85;;
68484;SDS011;55472;50.060;21.960;2023-12-20T11:38:09;24.63;;;9.07;;
68484;SDS011;55472;50.060;21.960;2023-12-20T11:40:35;28.63;;;10.68;;
68484;SDS011;55472;50.060;21.960;2023-12-20T11:43:03;42.03;;;13.20;;
68484;SDS011;55472;50.060;21.960;2023-12-20T11:45:32;31.15;;;11.15;;
68484;SDS011;55472;50.060;21.960;2023-12-20T11:48:05;32.95;;;11.73;;
68484;SDS011;55472;50.060;21.960;2023-12-20T11:50:32;24.90;;;10.07;;
68484;SDS011;55472;50.060;21.960;2023-12-20T11:52:58;49.80;;;14.35;;
68484;SDS011;55472;50.060;21.960;2023-12-20T11:55:24;45.03;;;14.77;;
68484;SDS011;55472;50.060;21.960;2023-12-20T11:57:51;29.05;;;10.52;;
68484;SDS011;55472;50.060;21.960;2023-12-20T12:00:18;47.80;;;15.07;;
68484;SDS011;55472;50.060;21.960;2023-12-20T12:02:55;27.73;;;11.07;;
68484;SDS011;55472;50.060;21.960;2023-12-20T12:05:23;26.20;;;10.38;;
68484;SDS011;55472;50.060;21.960;2023-12-20T12:07:49;60.53;;;19.98;;
68484;SDS011;55472;50.060;21.960;2023-12-20T12:10:15;63.28;;;22.30;;
68484;SDS011;55472;50.060;21.960;2023-12-20T12:12:41;32.90;;;12.10;;
68484;SDS011;55472;50.060;21.960;2023-12-20T12:15:07;29.33;;;10.27;;
68484;SDS011;55472;50.060;21.960;2023-12-20T12:17:42;40.30;;;14.77;;
68484;SDS011;55472;50.060;21.960;2023-12-20T12:20:11;27.02;;;11.77;;
68484;SDS011;55472;50.060;21.960;2023-12-20T12:22:38;30.73;;;12.48;;
68484;SDS011;55472;50.060;21.960;2023-12-20T12:25:19;33.60;;;13.00;;
68484;SDS011;55472;50.060;21.960;2023-12-20T12:28:14;36.63;;;13.00;;
68484;SDS011;55472;50.060;21.960;2023-12-20T12:30:41;38.45;;;14.95;;
68484;SDS011;55472;50.060;21.960;2023-12-20T12:33:08;31.33;;;11.68;;
68484;SDS011;55472;50.060;21.960;2023-12-20T12:35:34;43.67;;;15.88;;
68484;SDS011;55472;50.060;21.960;2023-12-20T12:38:00;33.03;;;12.45;;
68484;SDS011;55472;50.060;21.960;2023-12-20T12:40:28;38.37;;;15.83;;
68484;SDS011;55472;50.060;21.960;2023-12-20T12:42:58;46.03;;;18.23;;
68484;SDS011;55472;50.060;21.960;2023-12-20T12:45:30;46.30;;;17.20;;
68484;SDS011;55472;50.060;21.960;2023-12-20T12:48:16;37.65;;;13.77;;
68484;SDS011;55472;50.060;21.960;2023-12-20T12:50:48;37.72;;;13.75;;
68484;SDS011;55472;50.060;21.960;2023-12-20T12:53:18;49.30;;;16.43;;
68484;SDS011;55472;50.060;21.960;2023-12-20T12:58:47;55.05;;;19.50;;
68484;SDS011;55472;50.060;21.960;2023-12-20T13:01:13;33.15;;;12.90;;
68484;SDS011;55472;50.060;21.960;2023-12-20T13:03:39;33.90;;;12.50;;
68484;SDS011;55472;50.060;21.960;2023-12-20T13:06:05;30.47;;;10.47;;
68484;SDS011;55472;50.060;21.960;2023-12-20T13:08:34;30.58;;;10.27;;
68484;SDS011;55472;50.060;21.960;2023-12-20T13:11:00;27.00;;;10.88;;
68484;SDS011;55472;50.060;21.960;2023-12-20T13:13:30;29.27;;;11.68;;
68484;SDS011;55472;50.060;21.960;2023-12-20T13:15:56;30.88;;;11.93;;
68484;SDS011;55472;50.060;21.960;2023-12-20T13:18:23;27.23;;;11.27;;
68484;SDS011;55472;50.060;21.960;2023-12-20T13:20:49;31.02;;;11.93;;
68484;SDS011;55472;50.060;21.960;2023-12-20T13:23:15;30.38;;;12.15;;
68484;SDS011;55472;50.060;21.960;2023-12-20T13:25:43;28.05;;;11.75;;
68484;SDS011;55472;50.060;21.960;2023-12-20T13:28:13;34.05;;;12.93;;
68484;SDS011;55472;50.060;21.960;2023-12-20T13:30:39;28.73;;;10.70;;
68484;SDS011;55472;50.060;21.960;2023-12-20T13:33:06;30.15;;;12.00;;
68484;SDS011;55472;50.060;21.960;2023-12-20T13:35:32;34.08;;;13.15;;
68484;SDS011;55472;50.060;21.960;2023-12-20T13:38:17;31.52;;;12.70;;
68484;SDS011;55472;50.060;21.960;2023-12-20T13:41:23;32.03;;;11.52;;
68484;SDS011;55472;50.060;21.960;2023-12-20T13:43:50;31.27;;;12.47;;
68484;SDS011;55472;50.060;21.960;2023-12-20T13:46:16;27.92;;;10.30;;
68484;SDS011;55472;50.060;21.960;2023-12-20T13:48:43;29.08;;;10.75;;
68484;SDS011;55472;50.060;21.960;2023-12-20T13:51:09;27.88;;;11.25;;
68484;SDS011;55472;50.060;21.960;2023-12-20T13:53:37;26.48;;;11.40;;
68484;SDS011;55472;50.060;21.960;2023-12-20T13:56:04;32.23;;;11.70;;
68484;SDS011;55472;50.060;21.960;2023-12-20T13:58:30;31.70;;;11.68;;
68484;SDS011;55472;50.060;21.960;2023-12-20T14:00:56;29.02;;;12.30;;
68484;SDS011;55472;50.060;21.960;2023-12-20T14:03:23;63.13;;;25.98;;
68484;SDS011;55472;50.060;21.960;2023-12-20T14:05:49;36.58;;;14.43;;
68484;SDS011;55472;50.060;21.960;2023-12-20T14:08:16;31.10;;;12.50;;
68484;SDS011;55472;50.060;21.960;2023-12-20T14:10:54;34.10;;;12.77;;
68484;SDS011;55472;50.060;21.960;2023-12-20T14:13:20;43.03;;;18.48;;
68484;SDS011;55472;50.060;21.960;2023-12-20T14:15:46;44.25;;;19.23;;
68484;SDS011;55472;50.060;21.960;2023-12-20T14:18:14;36.85;;;15.30;;
68484;SDS011;55472;50.060;21.960;2023-12-20T14:20:42;38.50;;;14.80;;
68484;SDS011;55472;50.060;21.960;2023-12-20T14:23:08;32.53;;;13.02;;
68484;SDS011;55472;50.060;21.960;2023-12-20T14:25:37;34.85;;;13.75;;
68484;SDS011;55472;50.060;21.960;2023-12-20T14:28:04;36.72;;;15.18;;